createdAt,value
2023-03-21T00:01:55.336Z,20.52
2023-03-21T00:04:23.619Z,19.63
2023-03-21T00:06:51.691Z,23.73
2023-03-21T00:09:19.085Z,21.88
2023-03-21T00:11:46.609Z,21.38
2023-03-21T00:14:15.970Z,23.02
2023-03-21T00:16:45.790Z,20.13
2023-03-21T00:19:14.616Z,21.88
2023-03-21T00:22:05.973Z,21.98
2023-03-21T00:24:30.835Z,19.40
2023-03-21T00:27:15.884Z,21.92
2023-03-21T00:29:45.549Z,21.80
2023-03-21T00:32:12.958Z,21.55
2023-03-21T00:34:48.473Z,21.13
2023-03-21T00:37:21.731Z,22.27
2023-03-21T00:39:49.427Z,22.90
2023-03-21T00:42:17.221Z,22.50
2023-03-21T00:44:45.489Z,23.45
2023-03-21T00:47:13.507Z,23.80
2023-03-21T00:49:40.930Z,23.40
2023-03-21T00:52:18.351Z,24.35
2023-03-21T00:54:51.885Z,24.75
2023-03-21T00:57:22.052Z,23.75
2023-03-21T00:59:51.816Z,23.83
2023-03-21T01:02:23.042Z,25.48
2023-03-21T01:04:50.625Z,25.25
2023-03-21T01:07:17.942Z,28.15
2023-03-21T01:09:45.245Z,26.45
2023-03-21T01:12:12.550Z,27.38
2023-03-21T01:14:39.822Z,28.45
2023-03-21T01:17:07.382Z,32.00
2023-03-21T01:19:50.564Z,28.15
2023-03-21T01:22:18.845Z,28.30
2023-03-21T01:24:55.131Z,31.23
2023-03-21T01:27:25.874Z,28.65
2023-03-21T01:29:53.292Z,29.80
2023-03-21T01:32:20.818Z,29.83
2023-03-21T01:34:48.179Z,30.35
2023-03-21T01:37:17.814Z,31.35
2023-03-21T01:39:48.658Z,26.75
2023-03-21T01:42:16.124Z,27.90
2023-03-21T01:44:57.268Z,25.45
2023-03-21T01:47:27.046Z,27.05
2023-03-21T01:50:06.250Z,27.63
2023-03-21T01:52:53.844Z,27.73
2023-03-21T01:55:28.280Z,28.30
2023-03-21T01:58:28.236Z,29.73
2023-03-21T02:01:25.097Z,26.70
2023-03-21T02:03:57.043Z,28.00
2023-03-21T02:06:49.725Z,29.05
2023-03-21T02:09:33.583Z,28.77
2023-03-21T02:12:02.316Z,27.05
2023-03-21T02:14:32.928Z,29.98
2023-03-21T02:17:22.313Z,29.38
2023-03-21T02:20:11.756Z,29.17
2023-03-21T02:22:58.658Z,30.33
2023-03-21T02:25:38.459Z,28.25
2023-03-21T02:28:24.906Z,31.70
2023-03-21T02:31:08.041Z,31.33
2023-03-21T02:34:00.903Z,32.67
2023-03-21T02:36:34.427Z,29.00
2023-03-21T02:39:08.075Z,33.08
2023-03-21T02:41:44.691Z,30.85
2023-03-21T02:44:20.644Z,30.50
2023-03-21T02:46:59.682Z,29.98
2023-03-21T02:49:36.658Z,32.22
2023-03-21T02:52:15.537Z,34.53
2023-03-21T02:54:48.971Z,30.15
2023-03-21T02:57:22.876Z,31.17
2023-03-21T02:59:55.738Z,29.75
2023-03-21T03:05:00.590Z,30.73
2023-03-21T03:07:43.050Z,32.05
2023-03-21T03:10:21.864Z,30.27
2023-03-21T03:13:04.567Z,25.48
2023-03-21T03:15:33.442Z,28.08
2023-03-21T03:18:12.194Z,24.70
2023-03-21T03:20:47.090Z,26.80
2023-03-21T03:23:14.465Z,24.20
2023-03-21T03:25:49.904Z,24.13
2023-03-21T03:28:21.320Z,22.65
2023-03-21T03:31:07.143Z,23.60
2023-03-21T03:33:43.535Z,17.95
2023-03-21T03:36:18.761Z,22.55
2023-03-21T03:38:53.004Z,22.65
2023-03-21T03:41:25.653Z,21.63
2023-03-21T03:43:59.654Z,21.92
2023-03-21T03:46:52.215Z,23.88
2023-03-21T03:49:25.945Z,21.48
2023-03-21T03:51:58.714Z,21.05
2023-03-21T03:54:33.653Z,22.02
2023-03-21T03:57:04.486Z,22.63
2023-03-21T03:59:31.881Z,22.17
2023-03-21T04:02:11.615Z,21.40
2023-03-21T04:04:41.538Z,21.08
2023-03-21T04:07:09.142Z,20.85
2023-03-21T04:12:14.944Z,21.08
2023-03-21T04:14:53.296Z,19.63
2023-03-21T04:17:22.937Z,19.15
2023-03-21T04:19:55.513Z,19.50
2023-03-21T04:22:25.736Z,16.63
2023-03-21T04:24:53.489Z,19.80
2023-03-21T04:27:20.906Z,18.70
2023-03-21T04:30:06.073Z,17.10
2023-03-21T04:32:53.895Z,17.50
2023-03-21T04:35:21.728Z,18.58
2023-03-21T04:37:49.674Z,16.80
2023-03-21T04:40:18.940Z,15.63
2023-03-21T04:42:47.530Z,19.70
2023-03-21T04:45:15.924Z,18.15
2023-03-21T04:47:47.821Z,17.95
2023-03-21T04:50:16.682Z,19.48
2023-03-21T04:52:46.077Z,19.55
2023-03-21T04:55:14.722Z,17.33
2023-03-21T04:57:42.051Z,18.08
2023-03-21T05:00:16.355Z,19.52
2023-03-21T05:02:43.957Z,21.80
2023-03-21T05:05:12.143Z,19.42
2023-03-21T05:07:40.500Z,22.00
2023-03-21T05:10:09.204Z,20.47
2023-03-21T05:12:37.507Z,19.58
2023-03-21T05:15:06.517Z,22.35
2023-03-21T05:17:33.843Z,19.70
2023-03-21T05:20:01.394Z,22.63
2023-03-21T05:22:29.168Z,21.65
2023-03-21T05:24:58.230Z,23.45
2023-03-21T05:27:36.201Z,22.40
2023-03-21T05:30:10.751Z,22.02
2023-03-21T05:32:38.375Z,24.08
2023-03-21T05:35:09.418Z,21.63
2023-03-21T05:37:38.356Z,24.70
2023-03-21T05:40:07.508Z,26.30
2023-03-21T05:45:12.128Z,25.50
2023-03-21T05:47:40.285Z,24.35
2023-03-21T05:50:08.650Z,28.10
2023-03-21T05:52:36.939Z,28.30
2023-03-21T05:55:11.859Z,31.02
2023-03-21T05:57:40.917Z,29.92
2023-03-21T06:00:13.908Z,27.08
2023-03-21T06:02:44.241Z,30.55
2023-03-21T06:05:34.795Z,27.80
2023-03-21T06:08:02.207Z,29.23
2023-03-21T06:10:30.444Z,28.60
2023-03-21T06:12:58.975Z,25.42
2023-03-21T06:15:33.378Z,29.67
2023-03-21T06:18:15.751Z,28.02
2023-03-21T06:20:54.794Z,28.97
2023-03-21T06:23:22.300Z,24.88
2023-03-21T06:25:50.427Z,28.80
2023-03-21T06:28:17.986Z,30.58
2023-03-21T06:30:45.475Z,26.77
2023-03-21T06:33:25.473Z,31.25
2023-03-21T06:35:53.840Z,29.95
2023-03-21T06:40:49.665Z,29.38
2023-03-21T06:43:17.677Z,28.65
2023-03-21T06:45:46.487Z,29.15
2023-03-21T06:48:13.844Z,26.17
2023-03-21T06:50:51.828Z,26.10
2023-03-21T06:53:21.189Z,29.50
2023-03-21T06:56:15.079Z,26.23
2023-03-21T06:58:43.530Z,27.20
2023-03-21T07:01:19.573Z,27.13
2023-03-21T07:04:00.683Z,25.75
2023-03-21T07:06:30.287Z,25.60
2023-03-21T07:08:58.067Z,24.55
2023-03-21T07:11:26.238Z,27.17
2023-03-21T07:13:53.784Z,25.65
2023-03-21T07:16:21.812Z,23.83
2023-03-21T07:18:49.387Z,25.63
2023-03-21T07:21:16.736Z,23.25
2023-03-21T07:23:44.783Z,23.45
2023-03-21T07:26:12.156Z,23.55
2023-03-21T07:28:40.005Z,22.65
2023-03-21T07:31:08.455Z,20.98
2023-03-21T07:33:36.716Z,23.97
2023-03-21T07:36:04.393Z,20.80
2023-03-21T07:38:31.822Z,22.75
2023-03-21T07:41:00.371Z,21.73
2023-03-21T07:43:31.238Z,19.80
2023-03-21T07:45:59.722Z,21.23
2023-03-21T07:48:27.570Z,22.13
2023-03-21T07:50:54.895Z,19.42
2023-03-21T07:53:22.623Z,20.25
2023-03-21T07:55:55.672Z,21.52
2023-03-21T07:58:23.816Z,19.23
2023-03-21T08:00:51.950Z,21.08
2023-03-21T08:03:19.538Z,19.90
2023-03-21T08:05:47.044Z,18.48
2023-03-21T08:08:14.405Z,18.38
2023-03-21T08:10:44.365Z,20.15
2023-03-21T08:13:13.676Z,19.77
2023-03-21T08:15:42.345Z,18.85
2023-03-21T08:18:10.089Z,18.95
2023-03-21T08:20:37.432Z,19.10
2023-03-21T08:23:04.904Z,19.30
2023-03-21T08:25:32.784Z,20.33
2023-03-21T08:28:00.334Z,20.83
2023-03-21T08:30:29.570Z,20.13
2023-03-21T08:35:28.125Z,16.15
2023-03-21T08:37:55.464Z,19.77
2023-03-21T08:40:22.800Z,19.08
2023-03-21T08:42:50.312Z,18.13
2023-03-21T08:45:18.610Z,21.45
2023-03-21T08:47:46.338Z,18.93
2023-03-21T08:50:15.579Z,17.38
2023-03-21T08:52:42.948Z,18.48
2023-03-21T08:55:10.767Z,19.02
2023-03-21T08:57:38.173Z,20.45
2023-03-21T09:00:17.137Z,20.65
2023-03-21T09:02:52.396Z,18.17
2023-03-21T09:05:20.338Z,18.60
2023-03-21T09:07:49.646Z,31.65
2023-03-21T09:12:51.084Z,15.55
2023-03-21T09:15:20.476Z,15.07
2023-03-21T09:17:52.449Z,15.10
2023-03-21T09:20:22.644Z,15.82
2023-03-21T09:22:51.973Z,15.77
2023-03-21T09:27:46.782Z,16.05
2023-03-21T09:30:16.102Z,17.38
2023-03-21T09:35:19.681Z,14.50
2023-03-21T09:37:48.350Z,15.35
2023-03-21T09:40:25.602Z,15.13
2023-03-21T09:43:16.378Z,14.82
2023-03-21T09:45:52.602Z,14.13
2023-03-21T09:48:56.818Z,15.00
2023-03-21T09:51:27.173Z,15.63
2023-03-21T09:53:57.262Z,14.65
2023-03-21T09:56:26.184Z,18.20
2023-03-21T09:58:56.269Z,22.10
2023-03-21T10:01:32.892Z,21.05
2023-03-21T10:04:06.457Z,19.63
2023-03-21T10:06:39.216Z,15.95
2023-03-21T10:09:15.180Z,14.30
2023-03-21T10:11:48.694Z,17.65
2023-03-21T10:14:22.048Z,16.15
2023-03-21T10:16:50.408Z,14.23
2023-03-21T10:19:19.440Z,17.53
2023-03-21T10:22:00.329Z,15.68
2023-03-21T10:24:29.330Z,16.02
2023-03-21T10:26:57.166Z,15.48
2023-03-21T10:29:27.584Z,15.23
2023-03-21T10:31:55.875Z,17.33
2023-03-21T10:34:31.890Z,17.05
2023-03-21T10:37:00.270Z,14.25
2023-03-21T10:39:33.767Z,15.70
2023-03-21T10:42:01.491Z,16.00
2023-03-21T10:44:32.796Z,17.13
2023-03-21T10:47:05.096Z,15.18
2023-03-21T10:49:40.162Z,14.35
2023-03-21T10:52:11.288Z,16.00
2023-03-21T10:54:38.624Z,14.55
2023-03-21T10:57:09.463Z,16.03
2023-03-21T10:59:49.083Z,15.73
2023-03-21T11:02:27.324Z,15.57
2023-03-21T11:04:55.799Z,15.07
2023-03-21T11:07:25.999Z,15.98
2023-03-21T11:09:58.217Z,16.23
2023-03-21T11:12:31.636Z,16.30
2023-03-21T11:14:59.018Z,17.02
2023-03-21T11:17:31.261Z,17.70
2023-03-21T11:20:00.321Z,20.73
2023-03-21T11:22:31.975Z,24.73
2023-03-21T11:25:00.716Z,16.30
2023-03-21T11:27:31.962Z,15.68
2023-03-21T11:30:00.992Z,16.70
2023-03-21T11:32:36.182Z,16.08
2023-03-21T11:35:06.669Z,14.50
2023-03-21T11:37:47.740Z,14.75
2023-03-21T11:40:23.949Z,14.30
2023-03-21T11:42:52.478Z,15.30
2023-03-21T11:45:21.858Z,14.52
2023-03-21T11:47:50.719Z,17.67
2023-03-21T11:50:28.882Z,17.08
2023-03-21T11:53:08.363Z,16.92
2023-03-21T11:55:54.559Z,16.48
2023-03-21T11:58:40.957Z,14.93
2023-03-21T12:01:14.736Z,14.30
2023-03-21T12:03:52.605Z,13.85
2023-03-21T12:06:41.656Z,15.75
2023-03-21T12:09:08.968Z,14.25
2023-03-21T12:11:45.408Z,15.43
2023-03-21T12:14:12.730Z,15.57
2023-03-21T12:16:57.227Z,15.55
2023-03-21T12:19:43.470Z,13.52
2023-03-21T12:22:22.202Z,13.18
2023-03-21T12:24:57.731Z,14.15
2023-03-21T12:27:41.880Z,12.85
2023-03-21T12:30:28.219Z,14.70
2023-03-21T12:32:55.614Z,14.90
2023-03-21T12:35:28.893Z,13.73
2023-03-21T12:38:05.674Z,14.20
2023-03-21T12:40:39.154Z,13.88
2023-03-21T12:43:18.588Z,13.48
2023-03-21T12:45:49.650Z,13.00
2023-03-21T12:48:28.803Z,13.35
2023-03-21T12:50:57.214Z,13.70
2023-03-21T12:53:31.085Z,11.70
2023-03-21T12:56:02.541Z,11.10
2023-03-21T12:58:31.827Z,13.23
2023-03-21T13:01:03.524Z,13.38
2023-03-21T13:03:40.544Z,13.57
2023-03-21T13:06:10.235Z,13.07
2023-03-21T13:08:44.519Z,14.55
2023-03-21T13:11:14.400Z,13.98
2023-03-21T13:13:53.434Z,13.05
2023-03-21T13:16:36.646Z,11.98
2023-03-21T13:19:10.370Z,12.20
2023-03-21T13:21:58.134Z,13.48
2023-03-21T13:24:25.587Z,12.15
2023-03-21T13:27:00.750Z,11.85
2023-03-21T13:29:30.860Z,12.07
2023-03-21T13:32:05.771Z,12.35
2023-03-21T13:34:33.201Z,10.90
2023-03-21T13:37:01.923Z,12.05
2023-03-21T13:39:31.150Z,11.27
2023-03-21T13:44:52.130Z,11.18
2023-03-21T13:47:31.712Z,11.77
2023-03-21T13:50:17.905Z,11.38
2023-03-21T13:53:05.502Z,11.57
2023-03-21T13:55:38.246Z,10.75
2023-03-21T13:58:26.046Z,11.88
2023-03-21T14:01:12.399Z,11.35
2023-03-21T14:03:40.752Z,11.13
2023-03-21T14:06:09.577Z,11.17
2023-03-21T14:08:37.958Z,10.80
2023-03-21T14:11:07.869Z,11.43
2023-03-21T14:13:48.389Z,10.73
2023-03-21T14:16:18.109Z,10.23
2023-03-21T14:18:54.089Z,10.20
2023-03-21T14:21:25.070Z,11.40
2023-03-21T14:24:00.283Z,9.90
2023-03-21T14:26:30.394Z,10.85
2023-03-21T14:28:57.787Z,10.55
2023-03-21T14:31:26.672Z,10.98
2023-03-21T14:33:56.596Z,11.32
2023-03-21T14:36:28.686Z,12.20
2023-03-21T14:39:19.126Z,10.32
2023-03-21T14:41:50.974Z,9.50
2023-03-21T14:44:25.410Z,10.40
2023-03-21T14:47:06.718Z,11.35
2023-03-21T14:49:38.776Z,10.30
2023-03-21T14:52:08.741Z,11.13
2023-03-21T14:54:38.221Z,11.35
2023-03-21T14:57:08.686Z,10.25
2023-03-21T14:59:37.661Z,10.68
2023-03-21T15:02:17.284Z,10.32
2023-03-21T15:04:46.399Z,10.77
2023-03-21T15:07:24.939Z,10.60
2023-03-21T15:10:00.997Z,12.82
2023-03-21T15:12:28.367Z,10.00
2023-03-21T15:14:56.185Z,11.20
2023-03-21T15:17:24.402Z,11.32
2023-03-21T15:19:51.690Z,11.65
2023-03-21T15:22:33.965Z,11.65
2023-03-21T15:25:03.733Z,10.43
2023-03-21T15:27:33.246Z,11.25
2023-03-21T15:30:00.641Z,11.48
2023-03-21T15:32:28.624Z,10.85
2023-03-21T15:34:57.429Z,11.10
2023-03-21T15:37:27.457Z,11.80
2023-03-21T15:40:09.475Z,9.95
2023-03-21T15:42:40.877Z,9.18
2023-03-21T15:45:29.197Z,7.53
2023-03-21T15:48:01.529Z,7.05
2023-03-21T15:50:55.211Z,7.13
2023-03-21T15:53:24.050Z,7.05
2023-03-21T15:55:52.668Z,5.40
2023-03-21T15:58:22.204Z,6.50
2023-03-21T16:00:54.423Z,6.15
2023-03-21T16:03:28.085Z,6.65
2023-03-21T16:06:05.766Z,6.40
2023-03-21T16:08:35.809Z,6.72
2023-03-21T16:11:21.964Z,8.63
2023-03-21T16:13:49.672Z,6.15
2023-03-21T16:16:35.824Z,6.90
2023-03-21T16:19:03.898Z,7.15
2023-03-21T16:21:33.958Z,7.82
2023-03-21T16:24:02.264Z,9.05
2023-03-21T16:26:31.428Z,9.33
2023-03-21T16:28:59.068Z,9.27
2023-03-21T16:31:27.951Z,10.45
2023-03-21T16:33:55.886Z,8.52
2023-03-21T16:36:30.728Z,9.25
2023-03-21T16:38:58.864Z,7.43
2023-03-21T16:41:27.241Z,7.35
2023-03-21T16:43:55.057Z,8.10
2023-03-21T16:46:23.705Z,7.15
2023-03-21T16:48:52.243Z,6.05
2023-03-21T16:53:49.842Z,7.32
2023-03-21T16:56:40.763Z,6.40
2023-03-21T16:59:08.102Z,6.15
2023-03-21T17:01:38.448Z,6.30
2023-03-21T17:04:05.823Z,5.93
2023-03-21T17:06:33.785Z,6.68
2023-03-21T17:09:01.692Z,6.38
2023-03-21T17:11:33.933Z,6.72
2023-03-21T17:14:02.636Z,7.40
2023-03-21T17:16:30.051Z,6.68
2023-03-21T17:18:57.731Z,7.05
2023-03-21T17:21:27.362Z,7.47
2023-03-21T17:23:54.835Z,8.02
2023-03-21T17:26:26.767Z,7.93
2023-03-21T17:28:55.599Z,7.15
2023-03-21T17:31:24.012Z,8.40
2023-03-21T17:33:51.712Z,7.85
2023-03-21T17:36:27.150Z,8.15
2023-03-21T17:38:55.421Z,7.13
2023-03-21T17:41:23.173Z,5.90
2023-03-21T17:43:51.708Z,4.50
2023-03-21T17:46:23.275Z,3.00
2023-03-21T17:48:50.654Z,2.47
2023-03-21T17:51:18.448Z,2.92
2023-03-21T17:53:46.776Z,2.33
2023-03-21T17:56:15.734Z,2.13
2023-03-21T17:58:43.339Z,2.60
2023-03-21T18:01:11.120Z,1.80
2023-03-21T18:03:38.514Z,1.88
2023-03-21T18:06:06.541Z,2.17
2023-03-21T18:08:34.055Z,2.10
2023-03-21T18:11:01.697Z,2.60
2023-03-21T18:13:29.112Z,1.60
2023-03-21T18:15:56.737Z,3.08
2023-03-21T18:18:24.146Z,1.75
2023-03-21T18:20:53.953Z,1.55
2023-03-21T18:23:22.081Z,1.70
2023-03-21T18:25:51.783Z,1.90
2023-03-21T18:28:21.233Z,1.42
2023-03-21T18:31:07.884Z,1.55
2023-03-21T18:33:40.610Z,1.85
2023-03-21T18:36:13.952Z,1.60
2023-03-21T18:38:42.106Z,2.63
2023-03-21T18:41:09.514Z,4.38
2023-03-21T18:44:02.756Z,2.03
2023-03-21T18:46:25.116Z,1.50
2023-03-21T18:48:52.716Z,1.85
2023-03-21T18:51:20.231Z,2.63
2023-03-21T18:53:47.579Z,2.83
2023-03-21T18:56:57.679Z,2.55
2023-03-21T18:59:03.077Z,2.08
2023-03-21T19:01:30.478Z,2.25
2023-03-21T19:04:19.996Z,2.72
2023-03-21T19:06:47.963Z,2.15
2023-03-21T19:09:18.099Z,3.60
2023-03-21T19:11:46.144Z,2.83
2023-03-21T19:14:15.065Z,2.25
2023-03-21T19:17:14.960Z,2.30
2023-03-21T19:19:30.212Z,2.33
2023-03-21T19:21:57.570Z,2.63
2023-03-21T19:24:28.386Z,2.72
2023-03-21T19:26:56.391Z,2.55
2023-03-21T19:29:23.843Z,4.78
2023-03-21T19:31:51.694Z,4.85
2023-03-21T19:34:19.505Z,6.18
2023-03-21T19:36:51.419Z,2.97
2023-03-21T19:39:22.233Z,5.00
2023-03-21T19:41:50.186Z,5.85
2023-03-21T19:44:17.666Z,5.20
2023-03-21T19:46:45.271Z,6.13
2023-03-21T19:49:12.836Z,5.70
2023-03-21T19:51:40.780Z,4.70
2023-03-21T19:54:08.340Z,9.50
2023-03-21T19:56:37.663Z,3.50
2023-03-21T19:59:05.248Z,4.20
2023-03-21T20:01:32.629Z,4.50
2023-03-21T20:04:00.635Z,8.18
2023-03-21T20:06:28.041Z,6.35
2023-03-21T20:11:43.784Z,6.05
2023-03-21T20:14:11.356Z,3.72
2023-03-21T20:16:38.780Z,4.03
2023-03-21T20:19:09.096Z,7.40
2023-03-21T20:21:48.193Z,6.53
2023-03-21T20:24:17.784Z,4.28
2023-03-21T20:26:46.518Z,5.15
2023-03-21T20:30:07.420Z,6.28
2023-03-21T20:32:01.472Z,7.28
2023-03-21T20:34:30.432Z,8.48
2023-03-21T20:36:58.428Z,8.45
2023-03-21T20:39:28.554Z,9.35
2023-03-21T20:41:58.938Z,7.75
2023-03-21T20:44:57.304Z,9.15
2023-03-21T20:47:14.537Z,7.65
2023-03-21T20:49:42.230Z,7.70
2023-03-21T20:55:00.386Z,6.75
2023-03-21T20:57:28.366Z,6.70
2023-03-21T20:59:56.025Z,6.55
2023-03-21T21:02:23.735Z,6.22
2023-03-21T21:05:21.890Z,5.93
2023-03-21T21:07:41.634Z,6.30
2023-03-21T21:10:11.485Z,7.13
2023-03-21T21:12:40.221Z,6.22
2023-03-21T21:15:08.389Z,6.45
2023-03-21T21:20:23.518Z,5.45
2023-03-21T21:23:00.140Z,5.72
2023-03-21T21:25:28.920Z,4.38
2023-03-21T21:27:56.631Z,4.88
2023-03-21T21:30:24.312Z,5.70
2023-03-21T21:32:51.750Z,4.53
2023-03-21T21:35:20.617Z,4.45
2023-03-21T21:37:47.997Z,4.40
2023-03-21T21:40:20.495Z,4.35
2023-03-21T21:42:48.262Z,3.72
2023-03-21T21:45:16.190Z,3.53
2023-03-21T21:47:44.525Z,4.63
2023-03-21T21:50:12.291Z,3.63
2023-03-21T21:52:43.450Z,4.00
2023-03-21T21:55:10.846Z,3.58
2023-03-21T21:57:39.784Z,3.85
2023-03-21T22:00:12.974Z,3.67
2023-03-21T22:02:41.712Z,4.20
2023-03-21T22:05:09.651Z,2.75
2023-03-21T22:07:37.940Z,3.13
2023-03-21T22:10:05.553Z,4.40
2023-03-21T22:12:32.849Z,3.00
2023-03-21T22:15:00.472Z,3.95
2023-03-21T22:17:27.835Z,3.80
2023-03-21T22:20:05.248Z,2.97
2023-03-21T22:22:34.296Z,3.42
2023-03-21T22:25:01.729Z,3.07
2023-03-21T22:27:29.345Z,3.58
2023-03-21T22:29:56.881Z,2.50
2023-03-21T22:32:24.447Z,3.45
2023-03-21T22:34:51.981Z,2.85
2023-03-21T22:37:19.337Z,2.83
2023-03-21T22:39:46.974Z,2.30
2023-03-21T22:42:14.300Z,3.33
2023-03-21T22:44:41.960Z,2.78
2023-03-21T22:47:10.960Z,2.35
2023-03-21T22:49:39.210Z,2.78
2023-03-21T22:52:07.117Z,2.85
2023-03-21T22:54:34.380Z,3.33
2023-03-21T22:57:01.903Z,3.17
2023-03-21T22:59:29.962Z,2.75
2023-03-21T23:01:57.342Z,4.68
2023-03-21T23:04:26.141Z,3.38
2023-03-21T23:06:54.194Z,3.65
2023-03-21T23:09:21.475Z,2.92
2023-03-21T23:11:49.693Z,4.35
2023-03-21T23:14:20.100Z,2.58
2023-03-21T23:19:15.900Z,3.67
2023-03-21T23:21:44.394Z,2.90
2023-03-21T23:24:11.932Z,3.17
2023-03-21T23:26:39.821Z,2.33
2023-03-21T23:29:10.371Z,2.63
2023-03-21T23:31:37.798Z,2.60
2023-03-21T23:34:05.348Z,1.80
2023-03-21T23:36:32.902Z,2.72
2023-03-21T23:39:00.613Z,3.22
2023-03-21T23:41:27.914Z,3.08
2023-03-21T23:43:55.196Z,4.05
2023-03-21T23:46:22.605Z,2.40
2023-03-21T23:48:50.635Z,2.58
2023-03-21T23:51:18.311Z,2.90
2023-03-21T23:53:46.613Z,2.42
2023-03-21T23:56:18.406Z,2.80
2023-03-21T23:58:46.340Z,2.30
